createdAt,value
2022-09-10T06:15:42.958Z,6.50
2022-09-10T06:18:10.549Z,4.40
2022-09-10T06:20:38.271Z,4.13
2022-09-10T06:23:05.744Z,3.55
2022-09-10T12:33:51.750Z,3.40
2022-09-10T16:26:29.555Z,3.50
2022-09-10T16:28:58.213Z,2.58
2022-09-10T16:31:26.751Z,2.40
2022-09-10T16:33:55.175Z,3.28
2022-09-10T16:36:24.068Z,2.58
2022-09-10T16:38:55.910Z,2.20
2022-09-10T16:41:24.090Z,1.60
2022-09-10T16:43:51.891Z,2.28
2022-09-10T16:46:19.794Z,1.98
2022-09-10T16:48:47.301Z,2.33
2022-09-10T16:51:18.751Z,1.83
2022-09-10T16:53:48.056Z,1.77
2022-09-10T16:56:17.552Z,2.55
2022-09-10T16:58:49.157Z,2.13
2022-09-10T17:01:17.111Z,2.42
2022-09-10T17:03:46.046Z,2.28
2022-09-10T17:06:14.793Z,1.80
2022-09-10T17:08:42.528Z,1.95
2022-09-10T17:11:10.009Z,2.35
2022-09-10T17:13:37.786Z,2.33
2022-09-10T17:16:23.714Z,2.72
2022-09-10T17:50:24.421Z,2.20
2022-09-10T17:52:51.884Z,2.38
2022-09-10T18:30:21.135Z,1.75
2022-09-10T18:32:49.844Z,1.48
2022-09-10T18:35:18.423Z,1.23
2022-09-10T18:37:48.619Z,1.58
2022-09-10T18:40:16.543Z,1.10
2022-09-10T18:42:46.759Z,1.42
2022-09-10T18:45:14.803Z,1.70
2022-09-10T18:47:45.257Z,1.45
2022-09-10T18:50:13.827Z,1.23
2022-09-10T18:52:42.138Z,1.25
2022-09-10T19:00:26.418Z,1.27
2022-09-10T19:02:55.512Z,1.20
2022-09-10T19:05:23.348Z,1.70
2022-09-10T20:13:45.830Z,1.40
2022-09-10T20:16:14.504Z,3.50
2022-09-10T20:18:42.489Z,2.75
2022-09-10T20:21:13.251Z,1.30
2022-09-10T20:23:44.356Z,2.10
2022-09-10T20:26:21.584Z,1.60
2022-09-10T20:28:53.898Z,1.90
2022-09-10T20:31:21.740Z,1.20
2022-09-10T20:33:49.977Z,1.58
2022-09-10T20:36:18.265Z,1.38
2022-09-10T20:38:46.867Z,1.48
2022-09-10T20:41:14.830Z,1.63
2022-09-10T20:43:42.802Z,1.77
2022-09-10T20:46:15.203Z,1.27
2022-09-10T20:48:47.041Z,1.55
2022-09-10T20:51:18.601Z,1.00
2022-09-10T20:53:46.349Z,1.55
2022-09-10T21:20:52.704Z,1.92
2022-09-10T21:23:21.080Z,1.92
2022-09-10T21:25:52.346Z,1.65
2022-09-10T21:28:22.564Z,1.57
2022-09-10T21:30:50.077Z,1.33
2022-09-10T21:33:17.575Z,2.00
2022-09-10T21:35:45.041Z,1.85
2022-09-10T21:38:13.302Z,2.28
2022-09-10T21:40:41.608Z,1.20
2022-09-10T21:43:10.525Z,1.30
2022-09-10T21:45:37.836Z,1.25
2022-09-10T21:48:05.285Z,1.40
2022-09-10T21:50:32.794Z,1.40
2022-09-10T21:53:00.290Z,1.35
2022-09-10T21:55:27.753Z,1.30
2022-09-10T22:28:04.452Z,1.67
2022-09-10T22:30:31.944Z,1.42
2022-09-10T22:32:59.659Z,1.25
2022-09-10T22:35:29.412Z,1.77
2022-09-10T22:37:57.680Z,1.50
2022-09-10T22:40:25.442Z,1.55
2022-09-10T22:42:52.996Z,1.52
2022-09-10T22:45:21.357Z,1.55
2022-09-10T22:47:48.927Z,1.50
2022-09-10T22:50:16.835Z,1.73
2022-09-10T22:52:47.388Z,2.28
2022-09-10T22:55:14.920Z,1.98
2022-09-10T22:57:42.652Z,2.28
2022-09-10T23:00:13.799Z,1.65
2022-09-10T23:02:42.340Z,1.48
2022-09-10T23:05:13.709Z,1.38
2022-09-10T23:07:43.935Z,2.17
2022-09-10T23:10:12.837Z,2.83
2022-09-10T23:12:40.356Z,2.38
2022-09-10T23:15:08.365Z,3.47
2022-09-10T23:17:36.977Z,1.95
2022-09-10T23:20:04.692Z,2.00
2022-09-10T23:22:32.226Z,2.55
2022-09-10T23:24:59.822Z,1.63
2022-09-10T23:27:27.627Z,3.17
2022-09-10T23:29:55.010Z,3.05
2022-09-10T23:32:22.550Z,2.03
2022-09-10T23:34:51.121Z,1.85
2022-09-10T23:37:20.087Z,2.05
2022-09-10T23:39:47.761Z,1.92
2022-09-10T23:42:16.240Z,1.98
2022-09-10T23:44:43.937Z,2.20
2022-09-10T23:47:11.607Z,2.03
2022-09-10T23:49:39.235Z,2.20
2022-09-10T23:52:07.837Z,2.80
2022-09-10T23:54:35.835Z,2.28
2022-09-10T23:57:03.592Z,2.40
2022-09-10T23:59:32.258Z,2.22
